Time;durP1;ratioP1;P1;durP2;ratioP2;P2;SDS_P1;SDS_P2;PMS_P1;PMS_P2;Temp;Humidity;BMP_temperature;BMP_pressure;BME280_temperature;BME280_humidity;BME280_pressure;Samples;Min_cycle;Max_cycle;Signal;HPM_P1;HPM_P2
2021/04/23 00:03:29;;;;;;;22.50;5.70;;;0.90;99.90;;;;;;6291514;22;20842;-95
2021/04/23 00:14:53;;;;;;;19.42;5.20;;;1.00;99.90;;;;;;5984669;24;20373;-96
2021/04/23 01:04:54;;;;;;;17.87;5.20;;;0.80;99.90;;;;;;6276686;22;20598;-94
2021/04/23 01:08:25;;;;;;;18.77;5.13;;;0.70;99.90;;;;;;6277681;22;20711;-95
2021/04/23 01:11:41;;;;;;;18.98;5.95;;;0.70;99.90;;;;;;6248426;22;20393;-94
2021/04/23 01:14:30;;;;;;;22.27;5.97;;;0.70;99.90;;;;;;6253371;22;20384;-94
2021/04/23 01:17:17;;;;;;;22.07;5.77;;;0.70;99.90;;;;;;6252967;22;20462;-94
2021/04/23 01:20:19;;;;;;;17.67;5.32;;;0.60;99.90;;;;;;6255165;22;20383;-95
2021/04/23 01:26:30;;;;;;;19.47;5.30;;;0.50;99.90;;;;;;6275417;22;20447;-94
2021/04/23 01:33:50;;;;;;;16.30;4.43;;;1.00;99.90;;;;;;6247348;22;20464;-95
2021/04/23 01:49:03;;;;;;;19.50;5.07;;;1.50;99.90;;;;;;6290489;22;20380;-94
2021/04/23 01:59:25;;;;;;;19.30;5.32;;;0.90;99.90;;;;;;6162419;23;20391;-93
2021/04/23 02:02:06;;;;;;;20.25;5.20;;;0.80;99.90;;;;;;6166255;23;20732;-94
2021/04/23 02:04:41;;;;;;;17.98;4.57;;;0.90;99.90;;;;;;6180682;23;20383;-93
2021/04/23 02:07:16;;;;;;;18.77;4.93;;;1.00;99.90;;;;;;6173313;23;20491;-94
2021/04/23 02:09:54;;;;;;;19.25;5.43;;;1.20;99.90;;;;;;6153918;23;20444;-93
2021/04/23 02:12:38;;;;;;;23.52;5.22;;;1.10;99.90;;;;;;6154029;23;20391;-93
2021/04/23 02:15:18;;;;;;;21.10;5.50;;;1.20;99.90;;;;;;6156649;23;20387;-94
2021/04/23 02:18:02;;;;;;;20.27;5.20;;;1.30;99.90;;;;;;6190756;23;20392;-93
2021/04/23 02:20:37;;;;;;;22.67;5.35;;;1.40;99.90;;;;;;6214110;23;20456;-93
2021/04/23 02:23:13;;;;;;;21.05;5.35;;;1.40;99.90;;;;;;6190749;23;20820;-93
2021/04/23 02:25:49;;;;;;;23.80;5.38;;;1.20;99.90;;;;;;6168072;22;20880;-93
2021/04/23 02:28:41;;;;;;;17.52;5.15;;;1.20;99.90;;;;;;6278161;22;20424;-94
2021/04/23 02:31:16;;;;;;;20.58;4.80;;;1.20;99.90;;;;;;6283014;22;20786;-93
2021/04/23 02:33:57;;;;;;;21.23;5.72;;;1.20;99.90;;;;;;6271629;22;20669;-94
2021/04/23 02:36:45;;;;;;;18.55;5.32;;;1.30;99.90;;;;;;6282454;22;20382;-93
2021/04/23 02:39:39;;;;;;;21.05;4.95;;;1.20;99.90;;;;;;6264644;22;20402;-95
2021/04/23 02:42:17;;;;;;;16.30;5.00;;;1.00;99.90;;;;;;6257829;22;20661;-93
2021/04/23 02:44:56;;;;;;;21.60;5.47;;;1.00;99.90;;;;;;6287711;22;20389;-92
2021/04/23 02:47:32;;;;;;;20.95;6.45;;;1.00;99.90;;;;;;6284187;22;20370;-94
2021/04/23 02:50:54;;;;;;;22.75;5.63;;;0.90;99.90;;;;;;6284604;22;20390;-93
2021/04/23 02:53:50;;;;;;;17.15;5.70;;;0.60;99.90;;;;;;6216117;23;20392;-93
2021/04/23 02:56:40;;;;;;;21.23;5.75;;;0.40;99.90;;;;;;6195052;23;20455;-94
2021/04/23 04:05:59;;;;;;;28.20;6.77;;;-0.10;99.90;;;;;;6313744;22;20388;-93
2021/04/23 04:15:05;;;;;;;21.50;6.00;;;0.30;99.90;;;;;;6304625;22;20466;-93
2021/04/23 04:17:53;;;;;;;21.50;6.55;;;0.30;99.90;;;;;;6317028;22;20377;-93
2021/04/23 04:20:44;;;;;;;18.38;5.60;;;0.30;99.90;;;;;;6315904;22;20381;-95
2021/04/23 04:23:28;;;;;;;18.40;5.80;;;0.30;99.90;;;;;;6316273;22;20459;-94
2021/04/23 04:26:24;;;;;;;18.30;6.18;;;0.40;99.90;;;;;;6318536;22;20427;-94
2021/04/23 04:29:25;;;;;;;25.05;6.30;;;0.50;99.90;;;;;;6322648;22;20377;-93
2021/04/23 04:32:04;;;;;;;23.35;6.07;;;0.50;99.90;;;;;;6304612;22;20392;-93
2021/04/23 04:35:16;;;;;;;20.52;5.97;;;0.70;99.90;;;;;;6317673;22;20381;-95
2021/04/23 05:07:49;;;;;;;20.17;5.05;;;1.10;99.90;;;;;;6311715;22;20385;-94
2021/04/23 05:10:53;;;;;;;17.95;5.03;;;1.40;99.90;;;;;;6295165;22;20399;-95
2021/04/23 05:13:19;;;;;;;20.90;5.57;;;1.30;99.90;;;;;;6310586;22;20383;-93
2021/04/23 05:15:51;;;;;;;115.20;51.00;;;1.40;99.90;;;;;;6316120;22;20389;-93
2021/04/23 05:25:37;;;;;;;24.33;9.23;;;1.80;99.90;;;;;;6161000;23;20378;-95
2021/04/23 05:28:15;;;;;;;23.98;13.10;;;2.00;99.90;;;;;;6141590;23;20398;-95
2021/04/23 05:31:35;;;;;;;;;;;;;;;;;;;;;
2021/04/23 05:34:26;;;;;;;343.00;238.00;;;2.30;99.90;;;;;;6163327;23;20366;-95
2021/04/23 05:37:09;;;;;;;47.88;25.58;;;2.60;99.90;;;;;;6168191;23;20375;-94
2021/04/23 05:39:42;;;;;;;51.87;34.40;;;2.70;99.90;;;;;;6119374;23;20386;-95
2021/04/23 05:42:12;;;;;;;81.85;65.45;;;2.80;99.90;;;;;;6140026;23;20426;-95
2021/04/23 05:44:43;;;;;;;22.27;6.28;;;2.80;99.90;;;;;;6136293;23;20410;-96
2021/04/23 05:47:18;;;;;;;18.92;4.97;;;2.90;99.90;;;;;;6138891;23;20402;-95
2021/04/23 05:49:51;;;;;;;19.67;4.93;;;3.00;99.90;;;;;;6157315;23;20442;-95
2021/04/23 05:52:19;;;;;;;18.27;5.50;;;3.10;99.90;;;;;;6200995;23;20379;-94
2021/04/23 05:54:46;;;;;;;19.52;5.20;;;3.40;99.90;;;;;;6241239;23;20455;-95
2021/04/23 05:57:14;;;;;;;21.37;5.30;;;3.90;99.50;;;;;;6265568;22;20387;-94
2021/04/23 08:54:56;;;;;;;14.25;3.83;;;10.00;64.60;;;;;;6263401;22;21286;31
2021/04/23 09:13:26;;;;;;;11.13;3.35;;;10.00;60.90;;;;;;6226830;22;20488;-95
2021/04/23 09:17:05;;;;;;;10.50;3.30;;;10.50;60.40;;;;;;6283044;22;20461;-94
2021/04/23 10:00:29;;;;;;;11.63;3.00;;;10.00;61.30;;;;;;6233829;23;20387;-95
2021/04/23 10:56:53;;;;;;;9.25;3.28;;;9.80;63.30;;;;;;6298698;22;20380;-95
2021/04/23 11:20:22;;;;;;;11.10;3.70;;;11.10;58.80;;;;;;6302586;22;20380;-93
2021/04/23 11:22:55;;;;;;;10.80;3.85;;;11.30;57.90;;;;;;6359873;22;20379;-93
2021/04/23 11:25:25;;;;;;;12.10;4.00;;;11.70;60.60;;;;;;6359268;22;20375;-95
2021/04/23 11:28:14;;;;;;;9.75;3.67;;;11.50;60.60;;;;;;6359129;22;20383;-94
2021/04/23 11:31:04;;;;;;;11.43;3.85;;;11.30;57.00;;;;;;6362498;22;20452;-94
2021/04/23 11:33:52;;;;;;;9.70;4.10;;;11.10;56.50;;;;;;6352610;22;20406;-96
2021/04/23 11:36:42;;;;;;;11.27;3.85;;;11.40;60.40;;;;;;6359301;22;20383;-92
2021/04/23 11:39:11;;;;;;;11.45;4.03;;;12.10;57.80;;;;;;6355776;22;20393;-96
2021/04/23 11:41:59;;;;;;;11.50;3.92;;;11.90;59.10;;;;;;6369948;22;20397;-94
2021/04/23 11:45:01;;;;;;;9.82;3.60;;;11.60;57.00;;;;;;6348349;22;20382;-94
2021/04/23 11:47:30;;;;;;;9.07;3.40;;;11.30;58.90;;;;;;6339343;22;20384;-95
2021/04/23 11:50:18;;;;;;;9.87;3.77;;;11.70;56.40;;;;;;6358477;22;20370;-95
2021/04/23 11:52:53;;;;;;;8.52;3.22;;;11.70;54.70;;;;;;6359108;22;20955;-93
2021/04/23 11:55:32;;;;;;;13.73;3.90;;;12.20;57.10;;;;;;6378680;22;20890;-95
2021/04/23 11:58:17;;;;;;;11.27;4.05;;;12.30;59.30;;;;;;6331578;22;20401;-93
2021/04/23 12:00:49;;;;;;;13.23;4.40;;;12.80;56.80;;;;;;6330399;22;20413;-95
2021/04/23 12:03:20;;;;;;;13.20;4.55;;;12.80;56.70;;;;;;6360449;22;20366;-95
2021/04/23 12:05:55;;;;;;;8.35;3.55;;;13.20;56.20;;;;;;6349564;22;20467;-93
2021/04/23 12:08:25;;;;;;;7.80;3.60;;;13.50;52.20;;;;;;6345219;22;20375;-95
2021/04/23 12:11:00;;;;;;;14.13;4.30;;;13.40;52.80;;;;;;6344974;22;20414;-94
2021/04/23 12:13:40;;;;;;;11.57;3.80;;;13.70;55.10;;;;;;6346886;22;20458;-93
2021/04/23 12:16:11;;;;;;;9.20;4.20;;;13.80;50.60;;;;;;6347781;22;20862;-94
2021/04/23 12:18:47;;;;;;;12.07;3.93;;;14.00;51.70;;;;;;6349150;22;20760;-94
2021/04/23 12:21:15;;;;;;;10.23;3.85;;;14.10;51.10;;;;;;6355348;22;20390;-96
2021/04/23 12:23:42;;;;;;;14.50;4.40;;;14.70;48.60;;;;;;6363683;22;20375;-94
2021/04/23 12:26:12;;;;;;;11.23;4.03;;;14.30;48.80;;;;;;6367908;22;20375;-95
2021/04/23 12:28:50;;;;;;;11.13;3.80;;;14.10;50.30;;;;;;6346583;22;20379;-94
2021/04/23 12:32:02;;;;;;;12.00;4.30;;;14.00;47.60;;;;;;6357118;22;20390;-95
2021/04/23 12:34:51;;;;;;;10.33;3.70;;;13.60;50.40;;;;;;6303716;22;20379;-94
2021/04/23 12:37:28;;;;;;;9.23;3.70;;;13.20;49.80;;;;;;6302888;22;20458;-95
2021/04/23 12:39:56;;;;;;;10.82;3.95;;;12.90;52.80;;;;;;6308556;22;20413;-94
2021/04/23 12:42:26;;;;;;;10.45;3.63;;;13.60;50.70;;;;;;6280650;22;20402;-94
2021/04/23 12:44:59;;;;;;;11.32;4.28;;;14.10;54.40;;;;;;6281645;22;20468;-95
2021/04/23 12:47:26;;;;;;;14.55;4.25;;;15.10;51.10;;;;;;6284047;22;20474;-95
2021/04/23 12:49:53;;;;;;;9.15;3.30;;;15.60;50.70;;;;;;6282986;22;20386;-93
2021/04/23 12:52:21;;;;;;;9.93;4.03;;;14.60;49.10;;;;;;6281013;22;20466;-93
2021/04/23 12:54:53;;;;;;;11.60;4.07;;;14.40;50.30;;;;;;6281489;22;20379;-93
2021/04/23 12:57:24;;;;;;;10.57;4.13;;;14.20;48.50;;;;;;6306182;22;20757;-93
2021/04/23 13:00:00;;;;;;;9.70;4.28;;;14.30;48.30;;;;;;6281451;22;20409;-94
2021/04/23 13:02:36;;;;;;;10.02;4.00;;;14.50;48.60;;;;;;6283290;22;20396;-94
2021/04/23 13:05:14;;;;;;;11.43;4.25;;;14.80;48.00;;;;;;6310629;22;20746;-94
2021/04/23 13:07:47;;;;;;;12.03;4.20;;;14.90;47.10;;;;;;6343833;22;20489;-93
2021/04/23 13:10:18;;;;;;;9.60;3.92;;;15.60;48.30;;;;;;6346320;22;20406;-91
2021/04/23 13:13:23;;;;;;;12.52;5.07;;;15.10;46.90;;;;;;6348173;22;20844;-96
2021/04/23 13:19:10;;;;;;;11.70;4.50;;;13.80;48.60;;;;;;6351063;22;20434;-93
2021/04/23 13:21:44;;;;;;;13.25;5.15;;;13.60;52.40;;;;;;6314319;22;20381;-96
2021/04/23 13:24:22;;;;;;;10.02;4.50;;;13.90;51.20;;;;;;6315554;22;20940;-93
2021/04/23 13:26:59;;;;;;;9.60;4.30;;;14.00;49.20;;;;;;6316485;22;20380;-94
2021/04/23 13:29:38;;;;;;;11.73;4.80;;;14.50;48.60;;;;;;6313528;22;20467;-94
2021/04/23 13:32:10;;;;;;;11.57;4.70;;;14.90;49.50;;;;;;6318500;22;20391;-93
2021/04/23 13:34:54;;;;;;;11.00;4.85;;;14.70;49.70;;;;;;6337015;22;20444;-95
2021/04/23 13:37:34;;;;;;;10.60;4.78;;;14.80;48.80;;;;;;6338220;22;20436;-95
2021/04/23 13:40:06;;;;;;;14.20;5.27;;;14.40;47.60;;;;;;6338881;22;20364;-94
2021/04/23 13:42:39;;;;;;;11.52;5.40;;;14.00;50.30;;;;;;6320118;22;20413;-94
2021/04/23 13:45:23;;;;;;;12.57;4.80;;;14.20;52.50;;;;;;6163249;23;20392;-93
2021/04/23 13:47:53;;;;;;;10.83;5.60;;;14.50;47.50;;;;;;6185085;23;20385;-94
2021/04/23 13:50:43;;;;;;;12.52;5.03;;;14.10;50.50;;;;;;6183952;23;20401;-94
2021/04/23 13:53:27;;;;;;;10.38;4.97;;;14.70;48.70;;;;;;6183664;23;20751;-93
2021/04/23 13:56:23;;;;;;;14.60;5.27;;;15.40;49.50;;;;;;6158674;23;20593;-93
2021/04/23 13:59:15;;;;;;;11.43;5.28;;;15.30;49.70;;;;;;6183453;23;20880;-93
2021/04/23 14:01:59;;;;;;;11.00;4.93;;;15.00;48.20;;;;;;6184583;23;20421;-94
2021/04/23 14:04:31;;;;;;;10.38;4.75;;;15.10;48.00;;;;;;6185697;23;20398;-94
2021/04/23 14:06:59;;;;;;;11.07;4.60;;;15.20;49.70;;;;;;6186197;23;20744;-95
2021/04/23 14:09:30;;;;;;;10.90;4.55;;;14.80;47.30;;;;;;6185497;23;20424;-93
2021/04/23 14:12:15;;;;;;;11.85;5.18;;;14.40;46.80;;;;;;6186568;23;20408;-93
2021/04/23 14:14:49;;;;;;;13.07;5.35;;;14.10;49.00;;;;;;6183769;23;20493;-94
2021/04/23 14:17:19;;;;;;;11.13;4.47;;;14.30;49.00;;;;;;6184006;23;20389;-95
2021/04/23 14:19:50;;;;;;;15.30;5.28;;;14.30;45.90;;;;;;6184577;23;20385;-93
2021/04/23 14:22:18;;;;;;;12.05;5.10;;;13.90;47.90;;;;;;6239996;22;20889;-93
2021/04/23 14:24:46;;;;;;;12.40;4.90;;;14.30;48.90;;;;;;6313406;22;20408;-94
2021/04/23 14:27:15;;;;;;;9.60;4.63;;;14.10;49.10;;;;;;6313192;22;20713;-92
2021/04/23 14:29:44;;;;;;;10.75;4.53;;;14.40;49.30;;;;;;6313489;22;20408;-95
2021/04/23 14:32:15;;;;;;;12.02;4.70;;;14.80;49.80;;;;;;6348544;22;20412;-94
2021/04/23 14:34:41;;;;;;;8.73;3.60;;;15.20;49.00;;;;;;6324810;22;20388;-94
2021/04/23 14:37:11;;;;;;;12.80;5.43;;;14.80;46.90;;;;;;6331445;22;20383;-94
2021/04/23 14:39:50;;;;;;;14.45;5.30;;;14.70;48.30;;;;;;6338306;22;20377;-94
2021/04/23 14:45:55;;;;;;;10.50;5.10;;;14.80;49.00;;;;;;6340870;22;20376;-95
2021/04/23 14:48:24;;;;;;;10.75;5.05;;;15.10;49.10;;;;;;6311751;22;20388;-91
2021/04/23 14:50:52;;;;;;;11.35;5.30;;;14.60;46.10;;;;;;6311448;22;20392;-92
2021/04/23 14:53:21;;;;;;;12.15;5.10;;;14.40;47.80;;;;;;6311983;22;20380;-93
2021/04/23 14:55:49;;;;;;;12.52;5.18;;;14.30;48.70;;;;;;6312560;22;20407;-93
2021/04/23 14:58:16;;;;;;;11.18;5.10;;;14.20;48.70;;;;;;6312413;22;20446;-93
2021/04/23 15:00:47;;;;;;;12.30;5.70;;;14.30;48.90;;;;;;6293399;22;20441;-95
2021/04/23 15:05:57;;;;;;;14.03;5.67;;;15.10;48.80;;;;;;6339703;22;20398;-95
2021/04/23 15:08:57;;;;;;;13.18;5.70;;;15.50;48.10;;;;;;6338714;22;20373;-94
2021/04/23 15:11:50;;;;;;;14.20;5.68;;;15.50;46.20;;;;;;6325606;22;20393;-94
2021/04/23 15:14:46;;;;;;;15.88;6.00;;;15.10;47.60;;;;;;6351572;22;20385;-96
2021/04/23 15:17:21;;;;;;;11.82;5.63;;;14.40;49.10;;;;;;6351835;22;20422;-94
2021/04/23 15:19:54;;;;;;;12.32;5.82;;;14.60;48.80;;;;;;6299837;22;20425;-96
2021/04/23 15:22:21;;;;;;;11.40;5.10;;;14.60;50.20;;;;;;6287810;22;20386;-94
2021/04/23 15:24:51;;;;;;;12.45;5.50;;;14.40;49.60;;;;;;6287199;22;20531;-94
2021/04/23 15:27:20;;;;;;;10.77;5.55;;;14.40;48.10;;;;;;6288503;22;20382;-94
2021/04/23 15:29:47;;;;;;;12.48;5.70;;;14.10;49.70;;;;;;6283971;22;20378;-94
2021/04/23 15:32:14;;;;;;;16.00;5.93;;;14.30;49.70;;;;;;6307152;22;20378;-94
2021/04/23 15:34:44;;;;;;;15.73;5.88;;;14.50;49.30;;;;;;6307988;22;20433;-93
2021/04/23 15:37:11;;;;;;;12.25;5.65;;;14.90;49.00;;;;;;6281128;22;20461;-92
2021/04/23 15:39:41;;;;;;;12.55;5.28;;;14.90;48.00;;;;;;6284506;22;20406;-95
2021/04/23 15:42:08;;;;;;;13.73;5.73;;;15.00;46.90;;;;;;6286367;22;20389;-94
2021/04/23 15:44:35;;;;;;;12.30;5.20;;;15.00;49.10;;;;;;6282700;22;20414;-95
2021/04/23 15:47:10;;;;;;;14.52;5.55;;;14.90;48.10;;;;;;6283045;22;20465;-92
2021/04/23 15:49:40;;;;;;;17.30;6.15;;;14.60;50.40;;;;;;6291725;22;20685;-96
2021/04/23 15:55:28;;;;;;;13.90;5.65;;;14.20;49.20;;;;;;6321511;22;20396;-95
2021/04/23 16:00:39;;;;;;;13.23;6.03;;;13.70;49.90;;;;;;6288409;22;20398;-92
2021/04/23 16:37:10;;;;;;;14.33;6.43;;;13.50;50.70;;;;;;6336989;22;20385;-94
2021/04/23 16:39:37;;;;;;;13.53;6.23;;;13.70;49.80;;;;;;6314057;22;20457;-94
2021/04/23 16:42:04;;;;;;;11.88;5.93;;;13.80;49.40;;;;;;6312666;22;20885;-94
2021/04/23 16:44:30;;;;;;;13.80;6.22;;;13.70;49.60;;;;;;6313612;22;20384;-94
2021/04/23 16:46:57;;;;;;;14.50;5.78;;;13.40;51.70;;;;;;6313408;22;20408;-94
2021/04/23 16:49:24;;;;;;;17.00;6.10;;;13.30;52.20;;;;;;6313323;22;20388;-94
2021/04/23 16:51:51;;;;;;;14.70;6.25;;;13.20;52.00;;;;;;6313026;22;20468;-94
2021/04/23 16:54:20;;;;;;;15.15;6.55;;;12.80;51.40;;;;;;6313932;22;20377;-95
2021/04/23 16:56:49;;;;;;;16.00;6.35;;;12.70;52.40;;;;;;6312853;22;20922;-95
2021/04/23 16:59:17;;;;;;;12.85;6.10;;;12.70;52.70;;;;;;6314389;22;20877;-94
2021/04/23 17:26:36;;;;;;;11.75;6.00;;;11.90;55.10;;;;;;6338574;22;20395;-95
2021/04/23 17:29:20;;;;;;;16.00;6.43;;;11.60;54.90;;;;;;6314693;22;20365;-95
2021/04/23 17:31:59;;;;;;;15.37;5.70;;;11.40;55.70;;;;;;6322758;22;20384;-96
2021/04/23 17:34:29;;;;;;;14.82;6.13;;;11.40;56.70;;;;;;6328141;22;20370;-96
2021/04/23 19:26:26;;;;;;;21.90;8.40;;;7.00;85.00;;;;;;6327513;22;20381;-95
2021/04/23 19:30:16;;;;;;;18.92;6.65;;;6.90;85.60;;;;;;6332905;22;20377;-95
2021/04/23 19:49:12;;;;;;;12.68;6.47;;;6.10;91.00;;;;;;6306867;22;20398;-95
2021/04/23 20:33:03;;;;;;;18.25;6.38;;;5.70;93.70;;;;;;6290026;22;20403;-96
2021/04/23 20:35:57;;;;;;;21.50;6.50;;;5.60;93.50;;;;;;6291171;22;20475;-96
2021/04/23 20:38:45;;;;;;;15.80;6.93;;;5.60;92.40;;;;;;6299958;22;20374;-96
2021/04/23 20:41:34;;;;;;;17.98;7.53;;;5.70;92.10;;;;;;6298561;22;20403;-96
2021/04/23 20:46:51;;;;;;;18.92;7.30;;;6.00;91.50;;;;;;6316776;22;20629;-95
2021/04/23 20:49:24;;;;;;;18.40;6.82;;;6.20;90.40;;;;;;6296528;22;20385;-96
2021/04/23 20:52:14;;;;;;;19.05;6.93;;;6.40;90.00;;;;;;6325736;22;20382;-96
2021/04/23 20:54:43;;;;;;;13.88;7.15;;;6.50;90.20;;;;;;6269657;22;20389;-96
2021/04/23 20:57:13;;;;;;;15.75;6.07;;;6.50;91.10;;;;;;6289856;22;20412;-96
2021/04/23 20:59:44;;;;;;;16.57;6.40;;;6.50;89.60;;;;;;6265823;22;20389;-96
2021/04/23 21:02:12;;;;;;;18.13;6.60;;;6.40;89.40;;;;;;6290800;22;20390;-95
2021/04/23 21:04:43;;;;;;;20.63;6.97;;;6.40;89.10;;;;;;6289630;22;20382;-96
2021/04/23 21:07:10;;;;;;;20.55;6.70;;;6.60;89.70;;;;;;6288681;22;20389;-95
2021/04/23 21:09:36;;;;;;;20.45;8.38;;;6.50;89.10;;;;;;6283721;22;20470;-95
2021/04/23 21:12:04;;;;;;;15.35;6.38;;;6.60;88.40;;;;;;6271792;22;20436;-96
2021/04/23 21:14:30;;;;;;;16.20;6.10;;;6.50;91.40;;;;;;6306934;22;20377;-96
2021/04/23 21:16:57;;;;;;;12.88;5.30;;;6.20;91.00;;;;;;6309365;22;20366;-96
2021/04/23 21:19:25;;;;;;;13.95;5.13;;;5.60;93.40;;;;;;6299356;22;20379;-96
2021/04/23 21:21:51;;;;;;;12.63;5.18;;;5.10;94.30;;;;;;6283096;22;20871;-95
2021/04/23 21:24:21;;;;;;;12.45;5.53;;;4.80;95.90;;;;;;6283420;22;20458;-95
2021/04/23 21:26:50;;;;;;;17.08;5.28;;;4.60;96.60;;;;;;6286874;22;20390;-96
2021/04/23 21:29:17;;;;;;;13.60;4.75;;;4.50;96.70;;;;;;6286583;22;20367;-95
2021/04/23 21:31:44;;;;;;;15.35;4.82;;;4.30;97.20;;;;;;6286317;22;20708;-96
2021/04/23 21:34:13;;;;;;;11.15;4.88;;;4.20;97.40;;;;;;6283924;22;20387;-96
2021/04/23 21:36:40;;;;;;;11.80;4.82;;;4.20;97.70;;;;;;6286279;22;20700;-95
2021/04/23 21:39:07;;;;;;;13.53;5.23;;;4.10;97.90;;;;;;6287602;22;20856;-95
2021/04/23 21:41:35;;;;;;;13.38;5.47;;;4.10;98.30;;;;;;6261629;22;20390;-96
2021/04/23 21:44:02;;;;;;;14.13;5.38;;;4.10;98.60;;;;;;6260684;22;20462;-95
2021/04/23 21:46:29;;;;;;;15.43;5.53;;;4.10;98.60;;;;;;6259705;22;20959;-95
2021/04/23 21:48:56;;;;;;;14.97;5.50;;;4.10;98.40;;;;;;6284352;22;20454;-96
2021/04/23 21:51:23;;;;;;;15.10;5.88;;;4.20;98.60;;;;;;6286906;22;20387;-96
2021/04/23 21:53:50;;;;;;;21.35;6.15;;;4.20;99.00;;;;;;6289028;22;20403;-96
2021/04/23 21:56:17;;;;;;;16.83;6.33;;;4.10;99.30;;;;;;6289968;22;20382;-96
2021/04/23 21:58:44;;;;;;;14.60;6.65;;;3.90;99.70;;;;;;6294765;22;20453;-96
2021/04/23 22:01:12;;;;;;;15.88;6.25;;;4.00;99.90;;;;;;6290532;22;20469;-95
2021/04/23 22:03:39;;;;;;;16.63;6.90;;;4.00;99.90;;;;;;6315536;22;20414;-95
2021/04/23 22:06:12;;;;;;;17.42;7.25;;;4.00;99.90;;;;;;6291904;22;20393;-95
2021/04/23 22:08:39;;;;;;;19.88;7.93;;;4.10;99.90;;;;;;6286145;22;20443;-96
2021/04/23 22:11:06;;;;;;;20.00;8.30;;;4.20;99.90;;;;;;6281456;22;20855;-95
2021/04/23 22:13:33;;;;;;;18.88;7.88;;;4.20;99.90;;;;;;6283873;22;20473;-95
2021/04/23 22:16:00;;;;;;;17.42;7.68;;;4.20;99.90;;;;;;6284010;22;20420;-96
2021/04/23 22:18:27;;;;;;;16.98;8.13;;;4.10;99.90;;;;;;6283181;22;20382;-95
2021/04/23 22:20:53;;;;;;;21.10;8.40;;;3.80;99.90;;;;;;6283878;22;20406;-96
2021/04/23 22:23:20;;;;;;;14.88;7.78;;;3.80;99.90;;;;;;6289426;22;20466;-94
2021/04/23 22:25:48;;;;;;;17.00;8.30;;;3.80;99.90;;;;;;6289680;22;20383;-96
2021/04/23 22:28:16;;;;;;;19.20;8.35;;;3.70;99.90;;;;;;6295818;22;20363;-96
2021/04/23 22:30:43;;;;;;;19.63;8.80;;;3.70;99.90;;;;;;6299489;22;20382;-95
2021/04/23 22:33:10;;;;;;;17.33;8.43;;;3.60;99.90;;;;;;6296069;22;20445;-96
2021/04/23 22:35:37;;;;;;;21.63;9.40;;;3.50;99.90;;;;;;6283004;22;20383;-96
2021/04/23 22:38:05;;;;;;;17.85;9.32;;;3.50;99.90;;;;;;6282826;22;20417;-95
2021/04/23 22:40:42;;;;;;;23.48;9.98;;;3.60;99.90;;;;;;6290127;22;20397;-94
2021/04/23 22:43:09;;;;;;;19.92;9.75;;;3.60;99.90;;;;;;6282119;22;20402;-95
2021/04/23 22:45:37;;;;;;;23.00;10.13;;;3.70;99.90;;;;;;6281229;22;20749;-95
2021/04/23 22:48:06;;;;;;;17.58;9.23;;;3.50;99.90;;;;;;6281368;22;20926;-95
2021/04/23 22:50:36;;;;;;;22.00;9.93;;;3.50;99.90;;;;;;6282429;22;20388;-95
2021/04/23 22:53:03;;;;;;;19.13;10.23;;;3.40;99.90;;;;;;6281239;22;20421;-95
2021/04/23 22:55:33;;;;;;;20.07;10.73;;;3.30;99.90;;;;;;6281262;22;20413;-96
2021/04/23 22:58:02;;;;;;;19.88;10.73;;;3.40;99.90;;;;;;6281684;22;20414;-95
2021/04/23 23:00:33;;;;;;;24.13;11.20;;;3.40;99.90;;;;;;6282019;22;20741;-95
2021/04/23 23:03:05;;;;;;;20.23;9.40;;;3.40;99.90;;;;;;6283141;22;20378;-95
2021/04/23 23:05:32;;;;;;;23.38;10.32;;;3.10;99.90;;;;;;6282962;22;20859;-95
2021/04/23 23:07:59;;;;;;;22.50;11.40;;;2.80;99.90;;;;;;6283565;22;20461;-94
2021/04/23 23:10:31;;;;;;;23.08;12.10;;;2.70;99.90;;;;;;6307937;22;20390;-95
2021/04/23 23:12:58;;;;;;;24.35;12.13;;;2.80;99.90;;;;;;6310093;22;20385;-95
2021/04/23 23:15:24;;;;;;;23.53;12.03;;;2.90;99.90;;;;;;6283390;22;20409;-96
2021/04/23 23:17:51;;;;;;;23.27;12.03;;;3.00;99.90;;;;;;6283374;22;20716;-94
2021/04/23 23:20:18;;;;;;;25.10;12.55;;;3.10;99.90;;;;;;6282718;22;20414;-95
2021/04/23 23:22:46;;;;;;;23.98;13.25;;;3.10;99.90;;;;;;6282783;22;20382;-95
2021/04/23 23:25:13;;;;;;;28.20;13.07;;;3.10;99.90;;;;;;6257595;22;20386;-95
2021/04/23 23:27:40;;;;;;;22.75;12.95;;;3.00;99.90;;;;;;6282916;22;20465;-96
2021/04/23 23:30:10;;;;;;;26.43;12.20;;;2.90;99.90;;;;;;6283960;22;20695;-94
2021/04/23 23:32:37;;;;;;;24.98;12.65;;;2.90;99.90;;;;;;6284086;22;20401;-94
2021/04/23 23:35:06;;;;;;;25.92;12.50;;;2.90;99.90;;;;;;6283768;22;20767;-96
2021/04/23 23:37:33;;;;;;;22.65;12.25;;;3.10;99.90;;;;;;6283417;22;20495;-95
2021/04/23 23:40:01;;;;;;;22.80;12.63;;;3.00;99.90;;;;;;6284564;22;20889;-96
2021/04/23 23:42:28;;;;;;;24.33;12.43;;;3.00;99.90;;;;;;6283489;22;20385;-96
2021/04/23 23:44:57;;;;;;;19.17;11.80;;;2.90;99.90;;;;;;6288486;22;20428;-95
2021/04/23 23:47:24;;;;;;;22.73;13.50;;;2.60;99.90;;;;;;6284581;22;20418;-94
2021/04/23 23:49:51;;;;;;;26.23;14.23;;;2.40;99.90;;;;;;6284099;22;20641;-94
2021/04/23 23:52:18;;;;;;;27.08;14.88;;;2.30;99.90;;;;;;6284352;22;20399;-96
2021/04/23 23:54:45;;;;;;;29.65;14.95;;;2.20;99.90;;;;;;6285988;22;20382;-96
2021/04/23 23:57:11;;;;;;;29.90;15.77;;;2.30;99.90;;;;;;6284777;22;20414;-95
2021/04/23 23:59:38;;;;;;;27.87;15.23;;;2.20;99.90;;;;;;6311667;22;20708;-96
